Terminal Aerodrome Forecast
Issued by NWS Duluth, MN

Home | Current Version | Previous Version | Text Only | Print | Product List | Glossary On
Versions: 1 2 3 4 5 6 7 8 9 10 11 12 13 14 15 16 17 18 19 20 21 22 23 24 25 26 27 28 29 30 31 32
573
FTUS43 KDLH 071256 AAA
TAFINL
TAF AMD
KINL 071256Z 0713/0812 22005KT 5SM -SN BKN016 OVC035
      TEMPO 0713/0715 25008KT 2SM -SN BKN007
     FM071500 28012G20KT 4SM -SN BKN015 OVC025
     FM071800 30015G25KT 2SM -SN OVC010
     FM072100 32016G26KT 3SM -SN BLSN OVC015
     FM080000 32015G25KT 6SM -SN BLSN OVC020=

USA.gov is the U.S. government's official web portal to all federal, state and local government web resources and services.